sensor_id;sensor_type;location;lat;lon;timestamp;P1;durP1;ratioP1;P2;durP2;ratioP2
42364;SDS011;28498;54.400;18.566;2023-09-07T00:00:16;16.33;;;10.38;;
42364;SDS011;28498;54.400;18.566;2023-09-07T00:02:44;16.77;;;9.50;;
42364;SDS011;28498;54.400;18.566;2023-09-07T00:05:11;18.00;;;9.50;;
42364;SDS011;28498;54.400;18.566;2023-09-07T00:07:39;18.58;;;10.05;;
42364;SDS011;28498;54.400;18.566;2023-09-07T00:10:06;17.77;;;10.48;;
42364;SDS011;28498;54.400;18.566;2023-09-07T00:12:34;14.90;;;9.52;;
42364;SDS011;28498;54.400;18.566;2023-09-07T00:15:01;15.65;;;9.40;;
42364;SDS011;28498;54.400;18.566;2023-09-07T00:17:29;14.00;;;9.23;;
42364;SDS011;28498;54.400;18.566;2023-09-07T00:19:56;15.48;;;9.27;;
42364;SDS011;28498;54.400;18.566;2023-09-07T00:22:24;16.30;;;9.27;;
42364;SDS011;28498;54.400;18.566;2023-09-07T00:24:54;16.13;;;9.02;;
42364;SDS011;28498;54.400;18.566;2023-09-07T00:27:21;17.58;;;9.75;;
42364;SDS011;28498;54.400;18.566;2023-09-07T00:29:48;17.48;;;9.27;;
42364;SDS011;28498;54.400;18.566;2023-09-07T00:32:15;14.45;;;8.73;;
42364;SDS011;28498;54.400;18.566;2023-09-07T00:34:42;19.73;;;10.00;;
42364;SDS011;28498;54.400;18.566;2023-09-07T00:37:09;15.48;;;9.70;;
42364;SDS011;28498;54.400;18.566;2023-09-07T00:39:36;17.85;;;9.52;;
42364;SDS011;28498;54.400;18.566;2023-09-07T00:42:04;17.52;;;10.40;;
42364;SDS011;28498;54.400;18.566;2023-09-07T00:44:31;18.85;;;9.60;;
42364;SDS011;28498;54.400;18.566;2023-09-07T00:46:58;17.52;;;9.32;;
42364;SDS011;28498;54.400;18.566;2023-09-07T00:49:25;14.88;;;9.10;;
42364;SDS011;28498;54.400;18.566;2023-09-07T00:51:52;16.98;;;9.38;;
42364;SDS011;28498;54.400;18.566;2023-09-07T00:54:19;20.48;;;10.13;;
42364;SDS011;28498;54.400;18.566;2023-09-07T00:56:46;16.77;;;9.80;;
42364;SDS011;28498;54.400;18.566;2023-09-07T00:59:13;18.25;;;10.32;;
42364;SDS011;28498;54.400;18.566;2023-09-07T01:01:41;20.02;;;10.48;;
42364;SDS011;28498;54.400;18.566;2023-09-07T01:04:09;18.90;;;10.50;;
42364;SDS011;28498;54.400;18.566;2023-09-07T01:06:54;20.42;;;10.98;;
42364;SDS011;28498;54.400;18.566;2023-09-07T01:09:27;17.90;;;10.13;;
42364;SDS011;28498;54.400;18.566;2023-09-07T01:11:57;22.70;;;10.88;;
42364;SDS011;28498;54.400;18.566;2023-09-07T01:14:24;20.52;;;10.95;;
42364;SDS011;28498;54.400;18.566;2023-09-07T01:16:51;19.45;;;10.32;;
42364;SDS011;28498;54.400;18.566;2023-09-07T01:19:18;20.90;;;11.43;;
42364;SDS011;28498;54.400;18.566;2023-09-07T01:21:45;21.90;;;11.38;;
42364;SDS011;28498;54.400;18.566;2023-09-07T01:24:13;21.92;;;10.88;;
42364;SDS011;28498;54.400;18.566;2023-09-07T01:26:41;23.00;;;11.95;;
42364;SDS011;28498;54.400;18.566;2023-09-07T01:29:09;22.55;;;12.07;;
42364;SDS011;28498;54.400;18.566;2023-09-07T01:31:36;20.88;;;10.23;;
42364;SDS011;28498;54.400;18.566;2023-09-07T01:34:05;18.65;;;10.63;;
42364;SDS011;28498;54.400;18.566;2023-09-07T01:36:35;23.60;;;11.25;;
42364;SDS011;28498;54.400;18.566;2023-09-07T01:39:05;21.38;;;11.20;;
42364;SDS011;28498;54.400;18.566;2023-09-07T01:41:33;20.25;;;10.27;;
42364;SDS011;28498;54.400;18.566;2023-09-07T01:44:00;18.65;;;10.48;;
42364;SDS011;28498;54.400;18.566;2023-09-07T01:46:27;16.02;;;10.57;;
42364;SDS011;28498;54.400;18.566;2023-09-07T01:48:54;17.58;;;10.10;;
42364;SDS011;28498;54.400;18.566;2023-09-07T01:51:21;21.20;;;9.85;;
42364;SDS011;28498;54.400;18.566;2023-09-07T01:53:48;18.67;;;10.18;;
42364;SDS011;28498;54.400;18.566;2023-09-07T01:56:16;15.90;;;9.48;;
42364;SDS011;28498;54.400;18.566;2023-09-07T01:58:43;16.80;;;9.20;;
42364;SDS011;28498;54.400;18.566;2023-09-07T02:01:23;17.27;;;9.73;;
42364;SDS011;28498;54.400;18.566;2023-09-07T02:03:51;14.98;;;8.85;;
42364;SDS011;28498;54.400;18.566;2023-09-07T02:06:19;13.35;;;8.63;;
42364;SDS011;28498;54.400;18.566;2023-09-07T02:08:46;16.58;;;9.00;;
42364;SDS011;28498;54.400;18.566;2023-09-07T02:11:13;13.23;;;8.27;;
42364;SDS011;28498;54.400;18.566;2023-09-07T02:13:43;12.80;;;8.45;;
42364;SDS011;28498;54.400;18.566;2023-09-07T02:16:12;12.35;;;8.32;;
42364;SDS011;28498;54.400;18.566;2023-09-07T02:18:39;14.57;;;8.13;;
42364;SDS011;28498;54.400;18.566;2023-09-07T02:21:09;13.25;;;8.05;;
42364;SDS011;28498;54.400;18.566;2023-09-07T02:23:36;12.07;;;7.97;;
42364;SDS011;28498;54.400;18.566;2023-09-07T02:26:04;14.85;;;8.40;;
42364;SDS011;28498;54.400;18.566;2023-09-07T02:28:31;14.10;;;8.57;;
42364;SDS011;28498;54.400;18.566;2023-09-07T02:31:02;12.82;;;8.32;;
42364;SDS011;28498;54.400;18.566;2023-09-07T02:33:31;12.63;;;7.82;;
42364;SDS011;28498;54.400;18.566;2023-09-07T02:35:58;13.00;;;7.90;;
42364;SDS011;28498;54.400;18.566;2023-09-07T02:38:25;14.10;;;8.57;;
42364;SDS011;28498;54.400;18.566;2023-09-07T02:40:54;12.20;;;8.20;;
42364;SDS011;28498;54.400;18.566;2023-09-07T02:43:21;15.98;;;8.07;;
42364;SDS011;28498;54.400;18.566;2023-09-07T02:45:49;12.82;;;7.32;;
42364;SDS011;28498;54.400;18.566;2023-09-07T02:48:17;13.15;;;8.73;;
42364;SDS011;28498;54.400;18.566;2023-09-07T02:50:44;13.30;;;8.43;;
42364;SDS011;28498;54.400;18.566;2023-09-07T02:53:16;15.25;;;8.27;;
42364;SDS011;28498;54.400;18.566;2023-09-07T02:55:43;14.57;;;8.30;;
42364;SDS011;28498;54.400;18.566;2023-09-07T02:58:10;14.60;;;9.05;;
42364;SDS011;28498;54.400;18.566;2023-09-07T03:00:44;17.33;;;10.32;;
42364;SDS011;28498;54.400;18.566;2023-09-07T03:03:11;14.60;;;9.23;;
42364;SDS011;28498;54.400;18.566;2023-09-07T03:05:40;17.33;;;10.27;;
42364;SDS011;28498;54.400;18.566;2023-09-07T03:08:07;17.25;;;9.32;;
42364;SDS011;28498;54.400;18.566;2023-09-07T03:10:35;17.25;;;10.40;;
42364;SDS011;28498;54.400;18.566;2023-09-07T03:13:03;16.02;;;10.18;;
42364;SDS011;28498;54.400;18.566;2023-09-07T03:15:31;17.48;;;10.57;;
42364;SDS011;28498;54.400;18.566;2023-09-07T03:17:58;20.05;;;10.57;;
42364;SDS011;28498;54.400;18.566;2023-09-07T03:20:25;19.10;;;10.35;;
42364;SDS011;28498;54.400;18.566;2023-09-07T03:22:52;22.42;;;11.15;;
42364;SDS011;28498;54.400;18.566;2023-09-07T03:25:19;19.52;;;10.75;;
42364;SDS011;28498;54.400;18.566;2023-09-07T03:27:47;19.15;;;11.18;;
42364;SDS011;28498;54.400;18.566;2023-09-07T03:30:14;20.75;;;11.90;;
42364;SDS011;28498;54.400;18.566;2023-09-07T03:32:41;22.20;;;12.13;;
42364;SDS011;28498;54.400;18.566;2023-09-07T03:35:08;24.05;;;11.85;;
42364;SDS011;28498;54.400;18.566;2023-09-07T03:37:35;17.05;;;11.20;;
42364;SDS011;28498;54.400;18.566;2023-09-07T03:40:04;21.58;;;11.68;;
42364;SDS011;28498;54.400;18.566;2023-09-07T03:42:32;20.08;;;11.70;;
42364;SDS011;28498;54.400;18.566;2023-09-07T03:44:59;18.38;;;10.95;;
42364;SDS011;28498;54.400;18.566;2023-09-07T03:47:26;25.23;;;13.55;;
42364;SDS011;28498;54.400;18.566;2023-09-07T03:49:56;22.48;;;12.38;;
42364;SDS011;28498;54.400;18.566;2023-09-07T03:52:24;23.20;;;12.88;;
42364;SDS011;28498;54.400;18.566;2023-09-07T03:54:56;25.27;;;13.55;;
42364;SDS011;28498;54.400;18.566;2023-09-07T03:57:24;21.35;;;12.68;;
42364;SDS011;28498;54.400;18.566;2023-09-07T03:59:52;25.10;;;13.45;;
42364;SDS011;28498;54.400;18.566;2023-09-07T04:02:19;22.55;;;11.90;;
42364;SDS011;28498;54.400;18.566;2023-09-07T04:04:50;19.10;;;10.95;;
42364;SDS011;28498;54.400;18.566;2023-09-07T04:07:18;22.98;;;12.52;;
42364;SDS011;28498;54.400;18.566;2023-09-07T04:09:46;19.40;;;12.10;;
42364;SDS011;28498;54.400;18.566;2023-09-07T04:12:13;22.33;;;11.68;;
42364;SDS011;28498;54.400;18.566;2023-09-07T04:14:40;20.85;;;11.88;;
42364;SDS011;28498;54.400;18.566;2023-09-07T04:17:09;19.42;;;10.90;;
42364;SDS011;28498;54.400;18.566;2023-09-07T04:19:36;19.42;;;11.43;;
42364;SDS011;28498;54.400;18.566;2023-09-07T04:22:03;17.67;;;10.18;;
42364;SDS011;28498;54.400;18.566;2023-09-07T04:24:30;18.85;;;9.93;;
42364;SDS011;28498;54.400;18.566;2023-09-07T04:27:00;17.05;;;10.73;;
42364;SDS011;28498;54.400;18.566;2023-09-07T04:29:28;19.55;;;11.50;;
42364;SDS011;28498;54.400;18.566;2023-09-07T04:31:55;18.42;;;9.93;;
42364;SDS011;28498;54.400;18.566;2023-09-07T04:34:23;16.27;;;10.13;;
42364;SDS011;28498;54.400;18.566;2023-09-07T04:36:50;18.65;;;9.88;;
42364;SDS011;28498;54.400;18.566;2023-09-07T04:39:17;16.42;;;9.93;;
42364;SDS011;28498;54.400;18.566;2023-09-07T04:41:44;15.20;;;10.23;;
42364;SDS011;28498;54.400;18.566;2023-09-07T04:44:11;17.77;;;10.07;;
42364;SDS011;28498;54.400;18.566;2023-09-07T04:46:39;14.65;;;9.40;;
42364;SDS011;28498;54.400;18.566;2023-09-07T04:49:06;13.90;;;9.10;;
42364;SDS011;28498;54.400;18.566;2023-09-07T04:51:34;13.82;;;9.50;;
42364;SDS011;28498;54.400;18.566;2023-09-07T04:54:01;14.40;;;8.75;;
42364;SDS011;28498;54.400;18.566;2023-09-07T04:56:28;13.35;;;8.35;;
42364;SDS011;28498;54.400;18.566;2023-09-07T04:58:55;12.15;;;7.72;;
42364;SDS011;28498;54.400;18.566;2023-09-07T05:01:22;12.57;;;8.23;;
42364;SDS011;28498;54.400;18.566;2023-09-07T05:03:50;14.55;;;8.73;;
42364;SDS011;28498;54.400;18.566;2023-09-07T05:06:18;14.43;;;9.82;;
42364;SDS011;28498;54.400;18.566;2023-09-07T05:08:45;15.93;;;8.88;;
42364;SDS011;28498;54.400;18.566;2023-09-07T05:11:12;17.50;;;9.25;;
42364;SDS011;28498;54.400;18.566;2023-09-07T05:13:39;12.73;;;7.88;;
42364;SDS011;28498;54.400;18.566;2023-09-07T05:16:06;16.52;;;10.00;;
42364;SDS011;28498;54.400;18.566;2023-09-07T05:18:34;18.65;;;12.32;;
42364;SDS011;28498;54.400;18.566;2023-09-07T05:21:10;21.20;;;9.98;;
42364;SDS011;28498;54.400;18.566;2023-09-07T05:23:41;18.33;;;11.07;;
42364;SDS011;28498;54.400;18.566;2023-09-07T05:26:09;20.58;;;11.35;;
42364;SDS011;28498;54.400;18.566;2023-09-07T05:28:36;26.98;;;13.25;;
42364;SDS011;28498;54.400;18.566;2023-09-07T05:31:03;24.67;;;13.95;;
42364;SDS011;28498;54.400;18.566;2023-09-07T05:33:30;22.67;;;13.43;;
42364;SDS011;28498;54.400;18.566;2023-09-07T05:35:58;22.90;;;12.80;;
42364;SDS011;28498;54.400;18.566;2023-09-07T05:38:25;23.27;;;13.95;;
42364;SDS011;28498;54.400;18.566;2023-09-07T05:40:52;24.02;;;13.15;;
42364;SDS011;28498;54.400;18.566;2023-09-07T05:43:20;17.85;;;11.18;;
42364;SDS011;28498;54.400;18.566;2023-09-07T05:45:48;22.13;;;11.48;;
42364;SDS011;28498;54.400;18.566;2023-09-07T05:48:15;18.40;;;9.80;;
42364;SDS011;28498;54.400;18.566;2023-09-07T05:50:44;16.65;;;10.02;;
42364;SDS011;28498;54.400;18.566;2023-09-07T05:53:12;16.65;;;10.10;;
42364;SDS011;28498;54.400;18.566;2023-09-07T05:55:39;19.85;;;10.60;;
42364;SDS011;28498;54.400;18.566;2023-09-07T05:58:06;16.23;;;10.43;;
42364;SDS011;28498;54.400;18.566;2023-09-07T06:00:35;18.63;;;10.38;;
42364;SDS011;28498;54.400;18.566;2023-09-07T06:03:03;15.52;;;10.07;;
42364;SDS011;28498;54.400;18.566;2023-09-07T06:05:31;16.63;;;10.07;;
42364;SDS011;28498;54.400;18.566;2023-09-07T06:08:00;15.95;;;9.27;;
42364;SDS011;28498;54.400;18.566;2023-09-07T06:10:29;20.33;;;10.68;;
42364;SDS011;28498;54.400;18.566;2023-09-07T06:12:57;14.65;;;9.60;;
42364;SDS011;28498;54.400;18.566;2023-09-07T06:15:26;21.42;;;11.48;;
42364;SDS011;28498;54.400;18.566;2023-09-07T06:17:54;20.08;;;11.23;;
42364;SDS011;28498;54.400;18.566;2023-09-07T06:20:21;13.18;;;8.30;;
42364;SDS011;28498;54.400;18.566;2023-09-07T06:22:48;15.73;;;8.25;;
42364;SDS011;28498;54.400;18.566;2023-09-07T06:25:16;20.17;;;8.63;;
42364;SDS011;28498;54.400;18.566;2023-09-07T06:27:43;14.48;;;7.68;;
42364;SDS011;28498;54.400;18.566;2023-09-07T06:30:10;11.27;;;7.07;;
42364;SDS011;28498;54.400;18.566;2023-09-07T06:32:37;10.30;;;6.55;;
42364;SDS011;28498;54.400;18.566;2023-09-07T06:35:05;15.65;;;6.82;;
42364;SDS011;28498;54.400;18.566;2023-09-07T06:37:32;10.25;;;5.57;;
42364;SDS011;28498;54.400;18.566;2023-09-07T06:39:59;9.32;;;4.93;;
42364;SDS011;28498;54.400;18.566;2023-09-07T06:42:27;10.38;;;6.15;;
42364;SDS011;28498;54.400;18.566;2023-09-07T06:44:54;9.02;;;5.00;;
42364;SDS011;28498;54.400;18.566;2023-09-07T06:47:21;10.85;;;5.53;;
42364;SDS011;28498;54.400;18.566;2023-09-07T06:53:35;12.27;;;6.47;;
42364;SDS011;28498;54.400;18.566;2023-09-07T06:56:21;7.60;;;5.28;;
42364;SDS011;28498;54.400;18.566;2023-09-07T06:58:49;12.07;;;5.53;;
42364;SDS011;28498;54.400;18.566;2023-09-07T07:01:16;14.25;;;7.57;;
42364;SDS011;28498;54.400;18.566;2023-09-07T07:03:43;13.40;;;7.05;;
42364;SDS011;28498;54.400;18.566;2023-09-07T07:06:10;11.30;;;7.93;;
42364;SDS011;28498;54.400;18.566;2023-09-07T07:08:38;12.07;;;6.88;;
42364;SDS011;28498;54.400;18.566;2023-09-07T07:11:05;13.40;;;6.70;;
42364;SDS011;28498;54.400;18.566;2023-09-07T07:13:32;16.50;;;7.90;;
42364;SDS011;28498;54.400;18.566;2023-09-07T07:15:59;15.23;;;6.95;;
42364;SDS011;28498;54.400;18.566;2023-09-07T07:18:26;8.48;;;5.45;;
42364;SDS011;28498;54.400;18.566;2023-09-07T07:20:53;10.48;;;6.47;;
42364;SDS011;28498;54.400;18.566;2023-09-07T07:23:20;15.45;;;7.57;;
42364;SDS011;28498;54.400;18.566;2023-09-07T07:29:27;12.95;;;7.78;;
42364;SDS011;28498;54.400;18.566;2023-09-07T07:31:58;17.83;;;10.00;;
42364;SDS011;28498;54.400;18.566;2023-09-07T07:34:26;26.45;;;13.13;;
42364;SDS011;28498;54.400;18.566;2023-09-07T07:36:53;21.13;;;12.77;;
42364;SDS011;28498;54.400;18.566;2023-09-07T07:39:20;23.13;;;14.07;;
42364;SDS011;28498;54.400;18.566;2023-09-07T07:41:47;18.15;;;10.68;;
42364;SDS011;28498;54.400;18.566;2023-09-07T07:44:14;16.98;;;9.95;;
42364;SDS011;28498;54.400;18.566;2023-09-07T07:46:41;18.08;;;11.32;;
42364;SDS011;28498;54.400;18.566;2023-09-07T07:49:08;18.13;;;9.57;;
42364;SDS011;28498;54.400;18.566;2023-09-07T07:51:36;17.17;;;9.60;;
42364;SDS011;28498;54.400;18.566;2023-09-07T07:54:03;18.73;;;9.60;;
42364;SDS011;28498;54.400;18.566;2023-09-07T07:56:30;12.13;;;8.18;;
42364;SDS011;28498;54.400;18.566;2023-09-07T07:58:59;16.10;;;8.32;;
42364;SDS011;28498;54.400;18.566;2023-09-07T08:01:26;12.10;;;7.40;;
42364;SDS011;28498;54.400;18.566;2023-09-07T08:03:53;11.73;;;7.35;;
42364;SDS011;28498;54.400;18.566;2023-09-07T08:06:20;16.17;;;8.20;;
42364;SDS011;28498;54.400;18.566;2023-09-07T08:12:28;14.45;;;8.52;;
42364;SDS011;28498;54.400;18.566;2023-09-07T08:14:55;17.23;;;8.70;;
42364;SDS011;28498;54.400;18.566;2023-09-07T08:17:22;13.95;;;8.50;;
42364;SDS011;28498;54.400;18.566;2023-09-07T08:19:51;21.75;;;9.98;;
42364;SDS011;28498;54.400;18.566;2023-09-07T08:22:22;16.42;;;8.30;;
42364;SDS011;28498;54.400;18.566;2023-09-07T08:24:49;15.77;;;7.70;;
42364;SDS011;28498;54.400;18.566;2023-09-07T08:27:17;10.57;;;6.82;;
42364;SDS011;28498;54.400;18.566;2023-09-07T08:29:45;10.43;;;7.72;;
42364;SDS011;28498;54.400;18.566;2023-09-07T08:32:14;16.98;;;7.63;;
42364;SDS011;28498;54.400;18.566;2023-09-07T08:34:41;11.02;;;6.22;;
42364;SDS011;28498;54.400;18.566;2023-09-07T08:37:09;9.23;;;6.20;;
42364;SDS011;28498;54.400;18.566;2023-09-07T08:39:36;10.95;;;6.57;;
42364;SDS011;28498;54.400;18.566;2023-09-07T08:42:05;11.77;;;5.70;;
42364;SDS011;28498;54.400;18.566;2023-09-07T08:44:33;8.43;;;5.50;;
42364;SDS011;28498;54.400;18.566;2023-09-07T08:47:03;10.75;;;5.82;;
42364;SDS011;28498;54.400;18.566;2023-09-07T08:49:32;9.63;;;5.80;;
42364;SDS011;28498;54.400;18.566;2023-09-07T08:51:59;10.18;;;6.20;;
42364;SDS011;28498;54.400;18.566;2023-09-07T08:54:29;13.88;;;7.65;;
42364;SDS011;28498;54.400;18.566;2023-09-07T08:56:58;9.15;;;5.68;;
42364;SDS011;28498;54.400;18.566;2023-09-07T08:59:25;9.15;;;5.70;;
42364;SDS011;28498;54.400;18.566;2023-09-07T09:01:55;10.50;;;5.78;;
42364;SDS011;28498;54.400;18.566;2023-09-07T09:04:25;8.80;;;5.55;;
42364;SDS011;28498;54.400;18.566;2023-09-07T09:06:55;12.80;;;6.28;;
42364;SDS011;28498;54.400;18.566;2023-09-07T09:09:22;9.43;;;5.88;;
42364;SDS011;28498;54.400;18.566;2023-09-07T09:11:51;11.13;;;5.80;;
42364;SDS011;28498;54.400;18.566;2023-09-07T09:14:18;8.50;;;5.60;;
42364;SDS011;28498;54.400;18.566;2023-09-07T09:16:49;9.80;;;5.75;;
42364;SDS011;28498;54.400;18.566;2023-09-07T09:19:17;10.13;;;5.22;;
42364;SDS011;28498;54.400;18.566;2023-09-07T09:21:44;8.98;;;5.70;;
42364;SDS011;28498;54.400;18.566;2023-09-07T09:24:12;11.75;;;6.13;;
42364;SDS011;28498;54.400;18.566;2023-09-07T09:26:41;8.13;;;5.72;;
42364;SDS011;28498;54.400;18.566;2023-09-07T09:29:08;8.90;;;5.80;;
42364;SDS011;28498;54.400;18.566;2023-09-07T09:31:37;13.07;;;5.28;;
42364;SDS011;28498;54.400;18.566;2023-09-07T09:34:04;12.10;;;5.65;;
42364;SDS011;28498;54.400;18.566;2023-09-07T09:36:33;9.48;;;5.80;;
42364;SDS011;28498;54.400;18.566;2023-09-07T09:39:01;12.07;;;5.95;;
42364;SDS011;28498;54.400;18.566;2023-09-07T09:41:32;9.35;;;5.47;;
42364;SDS011;28498;54.400;18.566;2023-09-07T09:47:42;9.07;;;5.10;;
42364;SDS011;28498;54.400;18.566;2023-09-07T09:53:51;9.80;;;5.80;;
42364;SDS011;28498;54.400;18.566;2023-09-07T09:56:20;10.35;;;5.60;;
42364;SDS011;28498;54.400;18.566;2023-09-07T09:58:47;10.65;;;6.00;;
42364;SDS011;28498;54.400;18.566;2023-09-07T10:01:14;10.60;;;5.88;;
42364;SDS011;28498;54.400;18.566;2023-09-07T10:03:44;9.45;;;5.60;;
42364;SDS011;28498;54.400;18.566;2023-09-07T10:06:29;8.23;;;4.57;;
42364;SDS011;28498;54.400;18.566;2023-09-07T10:09:01;15.63;;;5.70;;
42364;SDS011;28498;54.400;18.566;2023-09-07T10:11:31;10.02;;;4.82;;
42364;SDS011;28498;54.400;18.566;2023-09-07T10:14:00;10.75;;;4.93;;
42364;SDS011;28498;54.400;18.566;2023-09-07T10:16:44;8.93;;;5.35;;
42364;SDS011;28498;54.400;18.566;2023-09-07T10:19:21;7.32;;;5.03;;
42364;SDS011;28498;54.400;18.566;2023-09-07T10:21:50;12.82;;;5.35;;
42364;SDS011;28498;54.400;18.566;2023-09-07T10:26:57;8.63;;;6.20;;
42364;SDS011;28498;54.400;18.566;2023-09-07T10:29:44;6.82;;;4.95;;
42364;SDS011;28498;54.400;18.566;2023-09-07T10:32:13;8.35;;;5.68;;
42364;SDS011;28498;54.400;18.566;2023-09-07T10:34:45;7.55;;;4.75;;
42364;SDS011;28498;54.400;18.566;2023-09-07T10:37:13;7.03;;;4.30;;
42364;SDS011;28498;54.400;18.566;2023-09-07T10:39:41;8.85;;;5.43;;
42364;SDS011;28498;54.400;18.566;2023-09-07T10:42:25;9.82;;;5.32;;
42364;SDS011;28498;54.400;18.566;2023-09-07T10:44:53;6.97;;;4.75;;
42364;SDS011;28498;54.400;18.566;2023-09-07T10:47:20;8.85;;;5.10;;
42364;SDS011;28498;54.400;18.566;2023-09-07T10:49:48;11.90;;;4.60;;
42364;SDS011;28498;54.400;18.566;2023-09-07T10:52:15;7.43;;;4.00;;
42364;SDS011;28498;54.400;18.566;2023-09-07T10:54:43;7.97;;;4.90;;
42364;SDS011;28498;54.400;18.566;2023-09-07T10:57:11;9.98;;;4.80;;
42364;SDS011;28498;54.400;18.566;2023-09-07T10:59:46;6.55;;;4.13;;
42364;SDS011;28498;54.400;18.566;2023-09-07T11:02:14;9.20;;;5.00;;
42364;SDS011;28498;54.400;18.566;2023-09-07T11:04:42;7.97;;;4.43;;
42364;SDS011;28498;54.400;18.566;2023-09-07T11:07:10;7.15;;;4.25;;
42364;SDS011;28498;54.400;18.566;2023-09-07T11:09:41;6.50;;;4.45;;
42364;SDS011;28498;54.400;18.566;2023-09-07T11:12:12;6.57;;;4.30;;
42364;SDS011;28498;54.400;18.566;2023-09-07T11:14:42;9.25;;;4.45;;
42364;SDS011;28498;54.400;18.566;2023-09-07T11:17:09;7.78;;;4.80;;
42364;SDS011;28498;54.400;18.566;2023-09-07T11:19:36;7.45;;;4.30;;
42364;SDS011;28498;54.400;18.566;2023-09-07T11:22:03;8.15;;;4.47;;
42364;SDS011;28498;54.400;18.566;2023-09-07T11:24:34;7.10;;;4.60;;
42364;SDS011;28498;54.400;18.566;2023-09-07T11:27:01;7.55;;;4.70;;
42364;SDS011;28498;54.400;18.566;2023-09-07T11:29:31;7.55;;;4.25;;
42364;SDS011;28498;54.400;18.566;2023-09-07T11:32:09;7.05;;;4.72;;
42364;SDS011;28498;54.400;18.566;2023-09-07T11:34:47;11.27;;;5.07;;
42364;SDS011;28498;54.400;18.566;2023-09-07T11:37:22;11.20;;;5.05;;
42364;SDS011;28498;54.400;18.566;2023-09-07T11:39:51;7.80;;;5.05;;
42364;SDS011;28498;54.400;18.566;2023-09-07T11:42:18;7.97;;;4.57;;
42364;SDS011;28498;54.400;18.566;2023-09-07T11:44:45;7.32;;;4.32;;
42364;SDS011;28498;54.400;18.566;2023-09-07T11:47:13;7.80;;;4.10;;
42364;SDS011;28498;54.400;18.566;2023-09-07T11:53:28;7.40;;;3.85;;
42364;SDS011;28498;54.400;18.566;2023-09-07T11:55:56;9.68;;;3.45;;
42364;SDS011;28498;54.400;18.566;2023-09-07T11:58:24;10.30;;;4.25;;
42364;SDS011;28498;54.400;18.566;2023-09-07T12:00:56;6.28;;;4.55;;
42364;SDS011;28498;54.400;18.566;2023-09-07T12:03:23;7.10;;;4.03;;
42364;SDS011;28498;54.400;18.566;2023-09-07T12:05:50;8.73;;;3.80;;
42364;SDS011;28498;54.400;18.566;2023-09-07T12:08:17;9.00;;;3.95;;
42364;SDS011;28498;54.400;18.566;2023-09-07T12:10:44;7.93;;;3.97;;
42364;SDS011;28498;54.400;18.566;2023-09-07T12:13:11;6.47;;;3.85;;
42364;SDS011;28498;54.400;18.566;2023-09-07T12:15:38;6.82;;;2.97;;
42364;SDS011;28498;54.400;18.566;2023-09-07T12:18:05;5.60;;;3.35;;
42364;SDS011;28498;54.400;18.566;2023-09-07T12:20:34;5.80;;;3.05;;
42364;SDS011;28498;54.400;18.566;2023-09-07T12:23:04;6.60;;;4.15;;
42364;SDS011;28498;54.400;18.566;2023-09-07T12:25:31;5.90;;;3.08;;
42364;SDS011;28498;54.400;18.566;2023-09-07T12:27:58;5.82;;;3.85;;
42364;SDS011;28498;54.400;18.566;2023-09-07T12:30:26;7.57;;;3.33;;
42364;SDS011;28498;54.400;18.566;2023-09-07T12:32:53;5.97;;;3.25;;
42364;SDS011;28498;54.400;18.566;2023-09-07T12:35:21;6.57;;;3.00;;
42364;SDS011;28498;54.400;18.566;2023-09-07T12:37:48;6.28;;;3.03;;
42364;SDS011;28498;54.400;18.566;2023-09-07T12:40:15;6.63;;;3.15;;
42364;SDS011;28498;54.400;18.566;2023-09-07T12:42:43;4.85;;;3.42;;
42364;SDS011;28498;54.400;18.566;2023-09-07T12:45:12;5.70;;;2.92;;
42364;SDS011;28498;54.400;18.566;2023-09-07T12:47:40;5.70;;;3.13;;
42364;SDS011;28498;54.400;18.566;2023-09-07T12:50:08;4.80;;;2.85;;
42364;SDS011;28498;54.400;18.566;2023-09-07T12:52:35;4.43;;;2.75;;
42364;SDS011;28498;54.400;18.566;2023-09-07T12:58:46;6.47;;;2.85;;
42364;SDS011;28498;54.400;18.566;2023-09-07T13:01:13;7.88;;;3.15;;
42364;SDS011;28498;54.400;18.566;2023-09-07T13:03:42;6.47;;;3.17;;
42364;SDS011;28498;54.400;18.566;2023-09-07T13:06:10;7.28;;;3.03;;
42364;SDS011;28498;54.400;18.566;2023-09-07T13:08:37;4.72;;;3.13;;
42364;SDS011;28498;54.400;18.566;2023-09-07T13:11:04;4.78;;;2.80;;
42364;SDS011;28498;54.400;18.566;2023-09-07T13:13:31;4.32;;;2.67;;
42364;SDS011;28498;54.400;18.566;2023-09-07T13:15:59;7.10;;;3.40;;
42364;SDS011;28498;54.400;18.566;2023-09-07T13:18:27;5.93;;;3.05;;
42364;SDS011;28498;54.400;18.566;2023-09-07T13:20:54;5.32;;;2.80;;
42364;SDS011;28498;54.400;18.566;2023-09-07T13:23:29;6.40;;;2.85;;
42364;SDS011;28498;54.400;18.566;2023-09-07T13:25:57;6.03;;;3.28;;
42364;SDS011;28498;54.400;18.566;2023-09-07T13:28:24;5.95;;;3.17;;
42364;SDS011;28498;54.400;18.566;2023-09-07T13:30:51;6.13;;;2.80;;
42364;SDS011;28498;54.400;18.566;2023-09-07T13:33:18;4.90;;;2.80;;
42364;SDS011;28498;54.400;18.566;2023-09-07T13:35:45;6.13;;;2.80;;
42364;SDS011;28498;54.400;18.566;2023-09-07T13:38:12;8.48;;;2.80;;
42364;SDS011;28498;54.400;18.566;2023-09-07T13:40:39;5.93;;;2.55;;
42364;SDS011;28498;54.400;18.566;2023-09-07T13:43:06;6.90;;;3.20;;
42364;SDS011;28498;54.400;18.566;2023-09-07T13:45:33;8.15;;;2.50;;
42364;SDS011;28498;54.400;18.566;2023-09-07T13:48:01;6.47;;;2.65;;
42364;SDS011;28498;54.400;18.566;2023-09-07T13:50:28;9.82;;;2.92;;
42364;SDS011;28498;54.400;18.566;2023-09-07T13:52:56;5.78;;;2.67;;
42364;SDS011;28498;54.400;18.566;2023-09-07T13:55:23;5.80;;;2.72;;
42364;SDS011;28498;54.400;18.566;2023-09-07T13:57:51;6.00;;;2.58;;
42364;SDS011;28498;54.400;18.566;2023-09-07T14:00:18;5.18;;;2.75;;
42364;SDS011;28498;54.400;18.566;2023-09-07T14:02:45;6.47;;;2.03;;
42364;SDS011;28498;54.400;18.566;2023-09-07T14:05:13;4.70;;;2.40;;
42364;SDS011;28498;54.400;18.566;2023-09-07T14:07:40;5.85;;;2.60;;
42364;SDS011;28498;54.400;18.566;2023-09-07T14:10:07;8.13;;;2.95;;
42364;SDS011;28498;54.400;18.566;2023-09-07T14:12:34;4.53;;;2.60;;
42364;SDS011;28498;54.400;18.566;2023-09-07T14:15:01;5.97;;;2.17;;
42364;SDS011;28498;54.400;18.566;2023-09-07T14:17:28;5.28;;;3.03;;
42364;SDS011;28498;54.400;18.566;2023-09-07T14:19:55;5.50;;;2.90;;
42364;SDS011;28498;54.400;18.566;2023-09-07T14:22:22;5.50;;;2.58;;
42364;SDS011;28498;54.400;18.566;2023-09-07T14:24:49;7.93;;;2.50;;
42364;SDS011;28498;54.400;18.566;2023-09-07T14:27:16;4.07;;;2.08;;
42364;SDS011;28498;54.400;18.566;2023-09-07T14:29:43;4.43;;;2.13;;
42364;SDS011;28498;54.400;18.566;2023-09-07T14:32:10;4.57;;;2.30;;
42364;SDS011;28498;54.400;18.566;2023-09-07T14:34:37;6.47;;;2.10;;
42364;SDS011;28498;54.400;18.566;2023-09-07T14:37:04;4.85;;;2.30;;
42364;SDS011;28498;54.400;18.566;2023-09-07T14:39:31;4.30;;;1.92;;
42364;SDS011;28498;54.400;18.566;2023-09-07T14:41:58;4.80;;;2.10;;
42364;SDS011;28498;54.400;18.566;2023-09-07T14:44:27;4.28;;;2.00;;
42364;SDS011;28498;54.400;18.566;2023-09-07T14:46:54;7.90;;;2.10;;
42364;SDS011;28498;54.400;18.566;2023-09-07T14:49:21;4.28;;;1.80;;
42364;SDS011;28498;54.400;18.566;2023-09-07T14:55:36;4.10;;;1.95;;
42364;SDS011;28498;54.400;18.566;2023-09-07T14:58:03;6.05;;;2.08;;
42364;SDS011;28498;54.400;18.566;2023-09-07T15:00:35;3.20;;;1.70;;